createdAt,value
2018-09-02T00:02:25.225Z,15.80
2018-09-02T00:04:52.946Z,15.80
2018-09-02T00:07:20.758Z,15.80
2018-09-02T00:09:48.445Z,15.70
2018-09-02T00:12:16.283Z,15.70
2018-09-02T00:14:43.937Z,15.80
2018-09-02T00:17:11.829Z,15.70
2018-09-02T00:19:39.598Z,15.70
2018-09-02T00:22:08.022Z,15.70
2018-09-02T00:24:35.690Z,15.70
2018-09-02T00:27:03.467Z,15.60
2018-09-02T00:29:31.222Z,15.70
2018-09-02T00:31:58.953Z,15.60
2018-09-02T00:34:26.846Z,15.60
2018-09-02T00:36:54.709Z,15.70
2018-09-02T00:39:22.537Z,15.60
2018-09-02T00:41:50.268Z,15.60
2018-09-02T00:44:18.108Z,15.60
2018-09-02T00:46:45.812Z,15.60
2018-09-02T00:49:13.506Z,15.60
2018-09-02T00:51:41.183Z,15.60
2018-09-02T00:54:08.890Z,15.60
2018-09-02T00:56:36.736Z,15.50
2018-09-02T00:59:04.519Z,15.50
2018-09-02T01:01:32.246Z,15.50
2018-09-02T01:03:59.932Z,15.50
2018-09-02T01:06:27.617Z,15.50
2018-09-02T01:08:55.256Z,15.50
2018-09-02T01:11:22.981Z,15.50
2018-09-02T01:13:50.774Z,15.50
2018-09-02T01:16:18.520Z,15.50
2018-09-02T01:18:46.592Z,15.50
2018-09-02T01:21:14.368Z,15.50
2018-09-02T01:23:42.141Z,15.40
2018-09-02T01:26:09.960Z,15.50
2018-09-02T01:28:37.640Z,15.40
2018-09-02T01:31:05.673Z,15.50
2018-09-02T01:33:33.407Z,15.50
2018-09-02T01:36:01.100Z,15.50
2018-09-02T01:38:28.909Z,15.40
2018-09-02T01:40:56.700Z,15.40
2018-09-02T01:43:24.365Z,15.40
2018-09-02T01:45:52.081Z,15.40
2018-09-02T01:48:19.804Z,15.40
2018-09-02T01:50:47.461Z,15.40
2018-09-02T01:53:15.251Z,15.40
2018-09-02T01:55:43.026Z,15.40
2018-09-02T01:58:10.751Z,15.40
2018-09-02T02:00:38.471Z,15.30
2018-09-02T02:03:06.193Z,15.30
2018-09-02T02:05:33.913Z,15.40
2018-09-02T02:08:01.628Z,15.40
2018-09-02T02:10:29.338Z,15.40
2018-09-02T02:12:56.940Z,15.50
2018-09-02T02:15:24.799Z,15.60
2018-09-02T02:17:52.477Z,15.50
2018-09-02T02:20:20.209Z,15.60
2018-09-02T02:22:47.973Z,15.50
2018-09-02T02:25:15.833Z,15.60
2018-09-02T02:27:43.750Z,15.50
2018-09-02T02:30:11.640Z,15.50
2018-09-02T02:32:40.141Z,15.50
2018-09-02T02:35:07.897Z,15.50
2018-09-02T02:37:35.598Z,15.50
2018-09-02T02:40:03.369Z,15.50
2018-09-02T02:42:31.188Z,15.50
2018-09-02T02:44:58.965Z,15.50
2018-09-02T02:47:26.747Z,15.50
2018-09-02T02:49:54.489Z,15.50
2018-09-02T02:52:27.054Z,15.50
2018-09-02T02:54:54.908Z,15.50
2018-09-02T02:57:22.569Z,15.50
2018-09-02T02:59:50.304Z,15.50
2018-09-02T03:02:18.004Z,15.50
2018-09-02T03:04:45.684Z,15.50
2018-09-02T03:07:13.502Z,15.60
2018-09-02T03:09:41.219Z,15.60
2018-09-02T03:12:09.529Z,15.60
2018-09-02T03:14:37.177Z,15.70
2018-09-02T03:17:04.917Z,15.80
2018-09-02T03:19:32.648Z,15.80
2018-09-02T03:22:00.331Z,15.80
2018-09-02T03:24:28.064Z,15.90
2018-09-02T03:26:55.836Z,15.90
2018-09-02T03:29:23.453Z,16.00
2018-09-02T03:31:51.147Z,16.00
2018-09-02T03:34:18.816Z,16.00
2018-09-02T03:36:46.609Z,16.00
2018-09-02T03:39:14.453Z,16.00
2018-09-02T03:41:42.119Z,16.00
2018-09-02T03:44:09.829Z,16.00
2018-09-02T03:46:37.531Z,16.00
2018-09-02T03:49:05.189Z,16.00
2018-09-02T03:51:32.865Z,16.00
2018-09-02T03:54:00.533Z,16.00
2018-09-02T03:56:28.297Z,15.90
2018-09-02T03:58:56.046Z,15.90
2018-09-02T04:01:24.108Z,15.90
2018-09-02T04:03:51.797Z,15.90
2018-09-02T04:06:19.493Z,15.90
2018-09-02T04:08:47.165Z,15.80
2018-09-02T04:11:14.982Z,15.80
2018-09-02T04:13:42.625Z,15.80
2018-09-02T04:16:10.489Z,15.80
2018-09-02T04:18:38.305Z,15.80
2018-09-02T04:21:06.138Z,15.80
2018-09-02T04:23:33.854Z,15.80
2018-09-02T04:26:01.541Z,15.80
2018-09-02T04:28:29.246Z,15.70
2018-09-02T04:30:56.982Z,15.70
2018-09-02T04:33:24.758Z,15.70
2018-09-02T04:35:52.457Z,15.70
2018-09-02T04:38:20.270Z,15.70
2018-09-02T04:40:47.964Z,15.70
2018-09-02T04:43:15.750Z,15.80
2018-09-02T04:45:43.464Z,15.80
2018-09-02T04:48:11.768Z,15.80
2018-09-02T04:50:39.637Z,15.70
2018-09-02T04:53:07.447Z,15.80
2018-09-02T04:55:35.174Z,15.80
2018-09-02T04:58:02.819Z,15.80
2018-09-02T05:00:30.725Z,15.80
2018-09-02T05:02:58.446Z,15.80
2018-09-02T05:05:26.150Z,15.80
2018-09-02T05:07:54.117Z,15.80
2018-09-02T05:10:21.939Z,15.80
2018-09-02T05:12:49.590Z,15.80
2018-09-02T05:15:17.317Z,15.80
2018-09-02T05:17:45.162Z,15.90
2018-09-02T05:20:12.820Z,15.80
2018-09-02T05:22:40.590Z,15.90
2018-09-02T05:25:08.370Z,15.90
2018-09-02T05:27:36.109Z,15.90
2018-09-02T05:30:04.327Z,15.90
2018-09-02T05:32:32.040Z,15.90
2018-09-02T05:34:59.772Z,15.90
2018-09-02T05:37:27.553Z,16.00
2018-09-02T05:39:55.196Z,16.00
2018-09-02T05:42:22.875Z,16.00
2018-09-02T05:44:50.594Z,16.00
2018-09-02T05:47:18.253Z,16.00
2018-09-02T05:49:45.977Z,16.10
2018-09-02T05:52:13.721Z,16.10
2018-09-02T05:54:41.401Z,16.10
2018-09-02T05:57:09.167Z,16.20
2018-09-02T05:59:36.890Z,16.20
2018-09-02T06:02:04.841Z,16.20
2018-09-02T06:04:32.531Z,16.20
2018-09-02T06:07:00.301Z,16.30
2018-09-02T06:09:28.051Z,16.30
2018-09-02T06:11:55.809Z,16.40
2018-09-02T06:14:23.581Z,16.40
2018-09-02T06:16:51.349Z,16.50
2018-09-02T06:19:19.109Z,16.50
2018-09-02T06:21:46.878Z,16.60
2018-09-02T06:24:14.674Z,16.70
2018-09-02T06:26:42.465Z,16.80
2018-09-02T06:29:10.292Z,16.80
2018-09-02T06:31:38.069Z,16.90
2018-09-02T06:34:05.853Z,16.90
2018-09-02T06:36:33.707Z,17.00
2018-09-02T06:39:01.376Z,17.00
2018-09-02T06:41:29.098Z,16.90
2018-09-02T06:43:56.866Z,16.90
2018-09-02T06:46:24.638Z,16.90
2018-09-02T06:48:52.408Z,16.90
2018-09-02T06:51:20.186Z,16.90
2018-09-02T06:53:47.952Z,16.90
2018-09-02T06:56:15.726Z,16.80
2018-09-02T06:58:43.538Z,16.80
2018-09-02T07:01:11.220Z,16.80
2018-09-02T07:03:39.315Z,16.80
2018-09-02T07:06:07.064Z,16.80
2018-09-02T07:08:34.934Z,16.90
2018-09-02T07:11:02.628Z,16.90
2018-09-02T07:13:30.344Z,16.90
2018-09-02T07:15:58.027Z,16.90
2018-09-02T07:18:25.832Z,17.00
2018-09-02T07:20:53.505Z,17.00
2018-09-02T07:23:21.328Z,17.00
2018-09-02T07:25:49.084Z,17.00
2018-09-02T07:28:16.868Z,17.00
2018-09-02T07:30:44.612Z,17.10
2018-09-02T07:33:12.894Z,17.10
2018-09-02T07:35:40.673Z,17.30
2018-09-02T07:38:08.409Z,17.50
2018-09-02T07:40:36.258Z,17.60
2018-09-02T07:43:03.946Z,17.70
2018-09-02T07:45:31.648Z,17.80
2018-09-02T07:47:59.390Z,17.80
2018-09-02T07:50:27.289Z,17.80
2018-09-02T07:52:55.105Z,17.90
2018-09-02T07:55:22.895Z,18.00
2018-09-02T07:57:50.690Z,18.10
2018-09-02T08:00:18.495Z,18.20
2018-09-02T08:02:46.178Z,18.40
2018-09-02T08:05:13.973Z,18.60
2018-09-02T08:07:41.919Z,18.80
2018-09-02T08:10:10.195Z,18.90
2018-09-02T08:12:38.944Z,18.90
2018-09-02T08:15:06.943Z,19.00
2018-09-02T08:17:34.619Z,19.10
2018-09-02T08:20:02.593Z,19.10
2018-09-02T08:22:31.435Z,19.20
2018-09-02T08:24:59.127Z,19.30
2018-09-02T08:27:27.276Z,19.40
2018-09-02T08:29:54.991Z,19.40
2018-09-02T08:32:22.961Z,19.40
2018-09-02T08:34:51.439Z,19.50
2018-09-02T08:37:19.859Z,19.60
2018-09-02T08:39:48.291Z,19.60
2018-09-02T08:42:16.014Z,19.70
2018-09-02T08:44:43.710Z,19.80
2018-09-02T08:47:11.407Z,20.00
2018-09-02T08:49:39.180Z,20.10
2018-09-02T08:52:07.978Z,20.10
2018-09-02T08:54:35.678Z,20.10
2018-09-02T08:57:03.374Z,20.10
2018-09-02T08:59:31.147Z,20.10
2018-09-02T09:01:58.826Z,20.20
2018-09-02T09:04:26.566Z,20.20
2018-09-02T09:06:54.317Z,20.20
2018-09-02T09:09:22.249Z,20.30
2018-09-02T09:11:49.857Z,20.30
2018-09-02T09:14:17.653Z,20.30
2018-09-02T09:16:45.514Z,20.30
2018-09-02T09:19:13.549Z,20.40
2018-09-02T09:21:41.519Z,20.40
2018-09-02T09:24:09.116Z,20.40
2018-09-02T09:26:36.852Z,20.40
2018-09-02T09:29:04.599Z,20.50
2018-09-02T09:31:33.032Z,20.50
2018-09-02T09:34:01.067Z,20.60
2018-09-02T09:36:28.837Z,20.60
2018-09-02T09:38:56.761Z,20.70
2018-09-02T09:41:24.501Z,20.80
2018-09-02T09:43:53.245Z,20.80
2018-09-02T09:46:21.631Z,20.60
2018-09-02T09:48:49.757Z,20.50
2018-09-02T09:51:17.462Z,20.50
2018-09-02T09:53:45.115Z,20.50
2018-09-02T09:56:12.825Z,20.50
2018-09-02T09:58:40.652Z,20.50
2018-09-02T10:01:08.625Z,20.50
2018-09-02T10:03:36.405Z,20.50
2018-09-02T10:06:04.322Z,20.50
2018-09-02T10:08:32.119Z,20.50
2018-09-02T10:10:59.892Z,20.50
2018-09-02T10:13:27.536Z,20.50
2018-09-02T10:15:55.366Z,20.50
2018-09-02T10:18:23.401Z,20.50
2018-09-02T10:20:51.147Z,20.50
2018-09-02T10:23:18.942Z,20.50
2018-09-02T10:25:46.733Z,20.40
2018-09-02T10:28:14.487Z,20.40
2018-09-02T10:30:42.264Z,20.50
2018-09-02T10:33:10.122Z,20.50
2018-09-02T10:35:37.834Z,20.50
2018-09-02T10:38:05.556Z,20.40
2018-09-02T10:40:33.476Z,20.40
2018-09-02T10:43:01.309Z,20.40
2018-09-02T10:45:29.141Z,20.40
2018-09-02T10:47:57.082Z,20.40
2018-09-02T10:50:24.898Z,20.40
2018-09-02T10:52:52.672Z,20.30
2018-09-02T10:55:20.452Z,20.20
2018-09-02T10:57:48.104Z,20.10
2018-09-02T11:00:15.846Z,20.10
2018-09-02T11:02:43.641Z,20.00
2018-09-02T11:05:11.372Z,20.00
2018-09-02T11:07:39.182Z,20.00
2018-09-02T11:10:07.095Z,20.00
2018-09-02T11:12:34.783Z,20.00
2018-09-02T11:15:02.657Z,20.10
2018-09-02T11:17:30.581Z,20.20
2018-09-02T11:19:58.349Z,20.30
2018-09-02T11:22:26.183Z,20.30
2018-09-02T11:24:53.937Z,20.40
2018-09-02T11:27:21.749Z,20.40
2018-09-02T11:29:49.522Z,20.40
2018-09-02T11:32:17.685Z,20.30
2018-09-02T11:34:45.413Z,20.40
2018-09-02T11:37:13.141Z,20.40
2018-09-02T11:39:40.959Z,20.30
2018-09-02T11:42:09.044Z,20.30
2018-09-02T11:44:36.845Z,20.30
2018-09-02T11:47:04.668Z,20.40
2018-09-02T11:49:32.510Z,20.50
2018-09-02T11:52:00.498Z,20.50
2018-09-02T11:54:28.197Z,20.60
2018-09-02T11:56:55.999Z,20.70
2018-09-02T11:59:23.778Z,20.80
2018-09-02T12:01:51.670Z,20.90
2018-09-02T12:04:19.354Z,21.00
2018-09-02T12:06:47.093Z,21.00
2018-09-02T12:09:14.960Z,21.10
2018-09-02T12:11:42.757Z,21.20
2018-09-02T12:14:10.349Z,21.30
2018-09-02T12:16:38.790Z,21.50
2018-09-02T12:19:06.656Z,21.50
2018-09-02T12:21:34.461Z,21.60
2018-09-02T12:24:02.181Z,21.60
2018-09-02T12:26:29.998Z,21.70
2018-09-02T12:28:57.720Z,21.80
2018-09-02T12:31:25.551Z,21.90
2018-09-02T12:33:53.265Z,22.00
2018-09-02T12:36:21.090Z,21.90
2018-09-02T12:38:48.853Z,21.90
2018-09-02T12:41:16.700Z,22.00
2018-09-02T12:43:44.438Z,22.10
2018-09-02T12:46:12.128Z,22.10
2018-09-02T12:48:39.808Z,22.10
2018-09-02T12:51:07.542Z,22.10
2018-09-02T12:53:35.328Z,22.00
2018-09-02T12:56:03.119Z,22.00
2018-09-02T12:58:30.788Z,21.90
2018-09-02T13:00:58.600Z,21.90
2018-09-02T13:03:26.316Z,21.80
2018-09-02T13:05:54.218Z,21.80
2018-09-02T13:08:22.034Z,21.70
2018-09-02T13:10:49.851Z,21.70
2018-09-02T13:13:17.607Z,21.80
2018-09-02T13:15:45.304Z,21.80
2018-09-02T13:18:12.946Z,21.80
2018-09-02T13:20:40.636Z,21.80
2018-09-02T13:23:08.464Z,21.70
2018-09-02T13:25:36.199Z,21.70
2018-09-02T13:28:03.997Z,21.50
2018-09-02T13:30:31.755Z,21.30
2018-09-02T13:32:59.411Z,21.10
2018-09-02T13:35:27.101Z,21.10
2018-09-02T13:37:54.993Z,21.00
2018-09-02T13:40:22.996Z,21.00
2018-09-02T13:42:51.143Z,20.90
2018-09-02T13:45:18.951Z,20.80
2018-09-02T13:47:46.727Z,20.80
2018-09-02T13:50:14.435Z,20.70
2018-09-02T13:52:42.675Z,20.70
2018-09-02T13:55:10.391Z,20.70
2018-09-02T13:57:38.099Z,20.70
2018-09-02T14:00:06.020Z,20.70
2018-09-02T14:02:33.825Z,20.70
2018-09-02T14:05:01.522Z,20.70
2018-09-02T14:07:29.255Z,20.70
2018-09-02T14:09:56.968Z,20.70
2018-09-02T14:12:25.150Z,20.70
2018-09-02T14:14:52.898Z,20.70
2018-09-02T14:17:20.603Z,20.70
2018-09-02T14:19:48.305Z,20.70
2018-09-02T14:22:16.045Z,20.80
2018-09-02T14:24:43.748Z,20.80
2018-09-02T14:27:11.454Z,20.80
2018-09-02T14:29:39.351Z,20.80
2018-09-02T14:32:07.497Z,20.80
2018-09-02T14:34:35.319Z,20.80
2018-09-02T14:37:03.203Z,20.80
2018-09-02T14:39:30.895Z,20.70
2018-09-02T14:41:58.721Z,20.70
2018-09-02T14:44:26.469Z,20.70
2018-09-02T14:46:54.148Z,20.70
2018-09-02T14:49:21.849Z,20.60
2018-09-02T14:51:49.602Z,20.70
2018-09-02T14:54:17.458Z,20.70
2018-09-02T14:56:45.267Z,20.70
2018-09-02T14:59:12.907Z,20.60
2018-09-02T15:01:40.648Z,20.50
2018-09-02T15:04:08.304Z,20.40
2018-09-02T15:06:36.331Z,20.30
2018-09-02T15:09:05.896Z,20.30
2018-09-02T15:11:33.694Z,20.20
2018-09-02T15:14:01.355Z,20.20
2018-09-02T15:16:29.130Z,20.10
2018-09-02T15:18:56.913Z,20.10
2018-09-02T15:21:24.980Z,20.10
2018-09-02T15:23:52.618Z,20.00
2018-09-02T15:26:20.436Z,19.90
2018-09-02T15:28:48.416Z,19.90
2018-09-02T15:31:16.175Z,19.80
2018-09-02T15:33:43.885Z,19.80
2018-09-02T15:36:11.685Z,19.70
2018-09-02T15:38:39.499Z,19.70
2018-09-02T15:41:07.213Z,19.70
2018-09-02T15:43:34.998Z,19.70
2018-09-02T15:46:02.769Z,19.70
2018-09-02T15:48:30.522Z,19.70
2018-09-02T15:50:58.251Z,19.70
2018-09-02T15:53:25.940Z,19.60
2018-09-02T15:55:53.730Z,19.50
2018-09-02T15:58:21.679Z,19.60
2018-09-02T16:00:49.408Z,19.60
2018-09-02T16:03:17.111Z,19.70
2018-09-02T16:05:44.805Z,19.60
2018-09-02T16:08:12.504Z,19.60
2018-09-02T16:10:40.238Z,19.50
2018-09-02T16:13:07.952Z,19.50
2018-09-02T16:15:35.627Z,19.50
2018-09-02T16:18:03.410Z,19.50
2018-09-02T16:20:31.158Z,19.50
2018-09-02T16:22:59.007Z,19.50
2018-09-02T16:25:26.772Z,19.50
2018-09-02T16:27:54.543Z,19.50
2018-09-02T16:30:23.254Z,19.50
2018-09-02T16:32:51.016Z,19.40
2018-09-02T16:35:18.866Z,19.40
2018-09-02T16:37:46.518Z,19.40
2018-09-02T16:40:14.192Z,19.40
2018-09-02T16:42:42.110Z,19.40
2018-09-02T16:45:09.883Z,19.30
2018-09-02T16:47:37.711Z,19.30
2018-09-02T16:50:05.932Z,19.30
2018-09-02T16:52:33.781Z,19.30
2018-09-02T16:55:01.509Z,19.20
2018-09-02T16:57:29.448Z,19.30
2018-09-02T16:59:57.217Z,19.20
2018-09-02T17:02:25.172Z,19.20
2018-09-02T17:04:56.267Z,19.10
2018-09-02T17:07:24.011Z,19.00
2018-09-02T17:09:51.721Z,19.00
2018-09-02T17:12:19.678Z,19.00
2018-09-02T17:15:18.494Z,19.00
2018-09-02T17:17:46.232Z,19.00
2018-09-02T17:20:20.507Z,19.00
2018-09-02T17:22:48.267Z,18.90
2018-09-02T17:25:16.039Z,18.90
2018-09-02T17:27:43.857Z,18.90
2018-09-02T17:30:11.533Z,19.00
2018-09-02T17:32:39.348Z,18.90
2018-09-02T17:35:07.127Z,18.90
2018-09-02T17:37:34.966Z,18.90
2018-09-02T17:40:02.790Z,18.90
2018-09-02T17:42:30.555Z,18.80
2018-09-02T17:44:58.325Z,18.80
2018-09-02T17:47:26.129Z,18.80
2018-09-02T17:49:53.944Z,18.90
2018-09-02T17:52:21.733Z,18.80
2018-09-02T17:54:49.741Z,18.80
2018-09-02T17:57:17.525Z,18.80
2018-09-02T17:59:45.343Z,18.80
2018-09-02T18:02:13.781Z,18.70
2018-09-02T18:04:41.529Z,18.70
2018-09-02T18:07:09.372Z,18.70
2018-09-02T18:09:37.142Z,18.70
2018-09-02T18:12:05.090Z,18.70
2018-09-02T18:14:32.800Z,18.70
2018-09-02T18:17:00.597Z,18.70
2018-09-02T18:19:28.285Z,18.60
2018-09-02T18:21:56.110Z,18.60
2018-09-02T18:24:23.841Z,18.60
2018-09-02T18:26:51.560Z,18.60
2018-09-02T18:29:19.346Z,18.50
2018-09-02T18:31:47.292Z,18.50
2018-09-02T18:34:15.012Z,18.50
2018-09-02T18:36:42.946Z,18.40
2018-09-02T18:39:11.530Z,18.40
2018-09-02T18:41:39.286Z,18.40
2018-09-02T18:44:07.054Z,18.40
2018-09-02T18:46:34.846Z,18.40
2018-09-02T18:49:03.349Z,18.30
2018-09-02T18:51:31.174Z,18.30
2018-09-02T18:53:59.160Z,18.30
2018-09-02T18:56:26.843Z,18.20
2018-09-02T18:58:54.603Z,18.20
2018-09-02T19:01:22.327Z,18.30
2018-09-02T19:03:50.359Z,18.30
2018-09-02T19:06:18.237Z,18.20
2018-09-02T19:08:46.065Z,18.20
2018-09-02T19:11:13.813Z,18.20
2018-09-02T19:13:42.261Z,18.20
2018-09-02T19:16:10.136Z,18.20
2018-09-02T19:18:37.825Z,18.20
2018-09-02T19:21:05.601Z,18.10
2018-09-02T19:23:33.383Z,18.10
2018-09-02T19:26:01.243Z,18.10
2018-09-02T19:28:29.000Z,18.10
2018-09-02T19:30:56.785Z,18.10
2018-09-02T19:33:24.543Z,18.00
2018-09-02T19:35:52.485Z,18.00
2018-09-02T19:38:20.317Z,18.00
2018-09-02T19:40:48.040Z,18.10
2018-09-02T19:43:15.935Z,18.00
2018-09-02T19:45:43.617Z,18.00
2018-09-02T19:48:11.400Z,18.00
2018-09-02T19:50:39.122Z,18.00
2018-09-02T19:53:06.856Z,17.90
2018-09-02T19:55:34.580Z,17.90
2018-09-02T19:58:02.340Z,17.90
2018-09-02T20:00:30.038Z,17.90
2018-09-02T20:02:57.735Z,17.90
2018-09-02T20:05:25.521Z,17.90
2018-09-02T20:07:53.265Z,17.90
2018-09-02T20:10:20.980Z,17.80
2018-09-02T20:12:48.839Z,17.80
2018-09-02T20:15:16.639Z,17.80
2018-09-02T20:17:44.331Z,17.90
2018-09-02T20:20:12.258Z,17.80
2018-09-02T20:22:40.131Z,17.90
2018-09-02T20:25:07.926Z,17.70
2018-09-02T20:27:35.802Z,17.80
2018-09-02T20:30:04.164Z,17.80
2018-09-02T20:32:31.832Z,17.80
2018-09-02T20:34:59.600Z,17.80
2018-09-02T20:37:27.404Z,17.80
2018-09-02T20:39:55.291Z,17.80
2018-09-02T20:42:23.349Z,17.80
2018-09-02T20:44:51.164Z,17.80
2018-09-02T20:47:18.983Z,17.80
2018-09-02T20:49:46.862Z,17.80
2018-09-02T20:52:14.631Z,17.70
2018-09-02T20:54:42.427Z,17.70
2018-09-02T20:57:10.189Z,17.70
2018-09-02T20:59:38.171Z,17.60
2018-09-02T21:02:06.251Z,17.60
2018-09-02T21:04:34.050Z,17.60
2018-09-02T21:07:01.732Z,17.60
2018-09-02T21:09:29.459Z,17.60
2018-09-02T21:11:57.327Z,17.60
2018-09-02T21:14:25.143Z,17.60
2018-09-02T21:16:53.031Z,17.60
2018-09-02T21:19:20.717Z,17.60
2018-09-02T21:21:48.625Z,17.50
2018-09-02T21:24:16.355Z,17.50
2018-09-02T21:26:44.213Z,17.50
2018-09-02T21:29:11.902Z,17.60
2018-09-02T21:31:39.694Z,17.50
2018-09-02T21:34:07.385Z,17.50
2018-09-02T21:36:35.122Z,17.50
2018-09-02T21:39:03.059Z,17.50
2018-09-02T21:41:30.815Z,17.50
2018-09-02T21:43:58.544Z,17.50
2018-09-02T21:46:26.460Z,17.50
2018-09-02T21:48:54.137Z,17.50
2018-09-02T21:51:21.882Z,17.50
2018-09-02T21:53:49.810Z,17.50
2018-09-02T21:56:17.553Z,17.50
2018-09-02T21:58:45.282Z,17.50
2018-09-02T22:01:12.974Z,17.50
2018-09-02T22:03:40.900Z,17.50
2018-09-02T22:06:08.616Z,17.50
2018-09-02T22:08:36.342Z,17.50
2018-09-02T22:11:04.190Z,17.50
2018-09-02T22:13:31.880Z,17.50
2018-09-02T22:15:59.637Z,17.50
2018-09-02T22:18:27.386Z,17.50
2018-09-02T22:20:54.993Z,17.50
2018-09-02T22:23:22.774Z,17.50
2018-09-02T22:25:50.552Z,17.50
2018-09-02T22:28:18.301Z,17.50
2018-09-02T22:30:46.001Z,17.50
2018-09-02T22:33:13.864Z,17.50
2018-09-02T22:35:41.609Z,17.60
2018-09-02T22:38:09.543Z,17.60
2018-09-02T22:40:37.563Z,17.60
2018-09-02T22:43:05.909Z,17.50
2018-09-02T22:45:33.761Z,17.50
2018-09-02T22:48:01.733Z,17.50
2018-09-02T22:50:29.473Z,17.50
2018-09-02T22:52:57.171Z,17.50
2018-09-02T22:55:25.101Z,17.50
2018-09-02T22:57:52.820Z,17.50
2018-09-02T23:00:20.533Z,17.50
2018-09-02T23:02:48.180Z,17.50
2018-09-02T23:05:16.001Z,17.40
2018-09-02T23:07:43.721Z,17.40
2018-09-02T23:10:11.505Z,17.40
2018-09-02T23:12:39.259Z,17.40
2018-09-02T23:15:07.177Z,17.40
2018-09-02T23:17:35.067Z,17.40
2018-09-02T23:20:03.360Z,17.40
2018-09-02T23:22:31.153Z,17.40
2018-09-02T23:24:59.069Z,17.40
2018-09-02T23:27:26.689Z,17.40
2018-09-02T23:29:54.364Z,17.40
2018-09-02T23:32:22.084Z,17.30
2018-09-02T23:34:49.837Z,17.40
2018-09-02T23:37:17.584Z,17.30
2018-09-02T23:39:45.506Z,17.30
2018-09-02T23:42:13.238Z,17.30
2018-09-02T23:44:40.942Z,17.20
2018-09-02T23:47:08.692Z,17.20
2018-09-02T23:49:36.408Z,17.10
2018-09-02T23:52:04.462Z,17.10
2018-09-02T23:54:32.206Z,17.10
2018-09-02T23:57:00.024Z,17.10
2018-09-02T23:59:27.732Z,17.00
